Biketreks 4th August 2009

I’ve not been to the last few Tuesday night rides, due to other obligations. This ride was “only” 19 miles (30km) but there was about 950metres of climbing. It’s currently 01:25-ish on Thursday as I write and I can still feel the dull ache in my legs. 🙂
There weren’t any particular high-lights to the route, as it was almost entirely old favourites. Good fun, and for me it’s not too much of a big deal if I’m a bit slow on the climb. I know where it’s going, and I’ll try and catch up on the inevitable downhill which follows.
It had rained hard for most of the 48 hours leading up to Tuesday 18:30, the most recent being about 16:00 that day. Having so much water on the ground, yet to percolate away made for some tricky and messy situations.
Here’s the GPX:

————————————————————————
<?xml version="1.0" encoding="UTF-8" standalone="yes"?>
<gpx version="1.1" creator="GPS Utility 4.20 – http://www.gpsu.co.uk&#34;
xmlns="http://www.topografix.com/GPX/1/1&#34;
xmlns:xsi="http://www.w3.org/2001/XMLSchema-instance&#34;
xsi:schemaLocation="http://www.topografix.com/GPX/1/1 http://www.topografix.com/GPX/1/1/gpx.xsd"&#62;

<trk>
<trkseg>
<trkpt lat="54.433784" lon="-2.964743"><ele>12</ele><time>2009-08-04T17:16:03Z</time></trkpt>
<trkpt lat="54.433719" lon="-2.963786"><ele>60</ele><time>2009-08-04T17:24:29Z</time></trkpt>
<trkpt lat="54.433066" lon="-2.963478"><ele>76</ele><time>2009-08-04T17:25:26Z</time></trkpt>
<trkpt lat="54.431981" lon="-2.964315"><ele>54</ele><time>2009-08-04T17:42:52Z</time></trkpt>
<trkpt lat="54.431096" lon="-2.965913"><ele>61</ele><time>2009-08-04T17:43:19Z</time></trkpt>
<trkpt lat="54.431553" lon="-2.969454"><ele>53</ele><time>2009-08-04T17:44:02Z</time></trkpt>
<trkpt lat="54.432000" lon="-2.970883"><ele>56</ele><time>2009-08-04T17:44:25Z</time></trkpt>
<trkpt lat="54.432064" lon="-2.971918"><ele>57</ele><time>2009-08-04T17:44:50Z</time></trkpt>
<trkpt lat="54.431904" lon="-2.972762"><ele>60</ele><time>2009-08-04T17:45:20Z</time></trkpt>
<trkpt lat="54.431735" lon="-2.974823"><ele>80</ele><time>2009-08-04T17:46:47Z</time></trkpt>
<trkpt lat="54.431886" lon="-2.976076"><ele>91</ele><time>2009-08-04T17:47:39Z</time></trkpt>
<trkpt lat="54.431700" lon="-2.976873"><ele>92</ele><time>2009-08-04T17:48:33Z</time></trkpt>
<trkpt lat="54.432279" lon="-2.977519"><ele>83</ele><time>2009-08-04T17:49:14Z</time></trkpt>
<trkpt lat="54.432638" lon="-2.978714"><ele>97</ele><time>2009-08-04T17:49:59Z</time></trkpt>
<trkpt lat="54.432286" lon="-2.980001"><ele>122</ele><time>2009-08-04T17:51:38Z</time></trkpt>
<trkpt lat="54.432065" lon="-2.981676"><ele>103</ele><time>2009-08-04T17:57:31Z</time></trkpt>
<trkpt lat="54.432271" lon="-2.982976"><ele>112</ele><time>2009-08-04T17:58:17Z</time></trkpt>
<trkpt lat="54.432379" lon="-2.983981"><ele>126</ele><time>2009-08-04T17:58:47Z</time></trkpt>
<trkpt lat="54.432199" lon="-2.985163"><ele>149</ele><time>2009-08-04T17:59:32Z</time></trkpt>
<trkpt lat="54.432567" lon="-2.986251"><ele>158</ele><time>2009-08-04T18:00:09Z</time></trkpt>
<trkpt lat="54.432151" lon="-2.987691"><ele>166</ele><time>2009-08-04T18:01:06Z</time></trkpt>
<trkpt lat="54.431719" lon="-2.988898"><ele>172</ele><time>2009-08-04T18:01:52Z</time></trkpt>
<trkpt lat="54.431336" lon="-2.989613"><ele>179</ele><time>2009-08-04T18:02:35Z</time></trkpt>
<trkpt lat="54.431087" lon="-2.990378"><ele>186</ele><time>2009-08-04T18:04:21Z</time></trkpt>
<trkpt lat="54.430751" lon="-2.989645"><ele>189</ele><time>2009-08-04T18:05:41Z</time></trkpt>
<trkpt lat="54.430316" lon="-2.989065"><ele>193</ele><time>2009-08-04T18:06:24Z</time></trkpt>
<trkpt lat="54.429853" lon="-2.988452"><ele>187</ele><time>2009-08-04T18:07:21Z</time></trkpt>
<trkpt lat="54.429030" lon="-2.988062"><ele>182</ele><time>2009-08-04T18:08:44Z</time></trkpt>
<trkpt lat="54.428668" lon="-2.987252"><ele>186</ele><time>2009-08-04T18:09:43Z</time></trkpt>
<trkpt lat="54.428533" lon="-2.986154"><ele>190</ele><time>2009-08-04T18:10:18Z</time></trkpt>
<trkpt lat="54.428054" lon="-2.985311"><ele>189</ele><time>2009-08-04T18:11:00Z</time></trkpt>
<trkpt lat="54.427287" lon="-2.984599"><ele>190</ele><time>2009-08-04T18:11:37Z</time></trkpt>
<trkpt lat="54.426865" lon="-2.983479"><ele>197</ele><time>2009-08-04T18:17:30Z</time></trkpt>
<trkpt lat="54.426433" lon="-2.982497"><ele>186</ele><time>2009-08-04T18:18:03Z</time></trkpt>
<trkpt lat="54.426131" lon="-2.981966"><ele>178</ele><time>2009-08-04T18:19:43Z</time></trkpt>
<trkpt lat="54.425612" lon="-2.981707"><ele>180</ele><time>2009-08-04T18:22:13Z</time></trkpt>
<trkpt lat="54.425369" lon="-2.982857"><ele>160</ele><time>2009-08-04T18:23:38Z</time></trkpt>
<trkpt lat="54.424950" lon="-2.983510"><ele>140</ele><time>2009-08-04T18:24:39Z</time></trkpt>
<trkpt lat="54.424464" lon="-2.984793"><ele>120</ele><time>2009-08-04T18:25:26Z</time></trkpt>
<trkpt lat="54.424336" lon="-2.986069"><ele>115</ele><time>2009-08-04T18:25:48Z</time></trkpt>
<trkpt lat="54.423650" lon="-2.986407"><ele>96</ele><time>2009-08-04T18:26:16Z</time></trkpt>
<trkpt lat="54.423219" lon="-2.985303"><ele>87</ele><time>2009-08-04T18:26:38Z</time></trkpt>
<trkpt lat="54.422815" lon="-2.986403"><ele>53</ele><time>2009-08-04T18:27:20Z</time></trkpt>
<trkpt lat="54.422621" lon="-2.987061"><ele>56</ele><time>2009-08-04T18:30:13Z</time></trkpt>
<trkpt lat="54.422198" lon="-2.984831"><ele>56</ele><time>2009-08-04T18:30:49Z</time></trkpt>
<trkpt lat="54.422103" lon="-2.983318"><ele>64</ele><time>2009-08-04T18:31:13Z</time></trkpt>
<trkpt lat="54.421382" lon="-2.980234"><ele>67</ele><time>2009-08-04T18:32:25Z</time></trkpt>
<trkpt lat="54.420499" lon="-2.981554"><ele>61</ele><time>2009-08-04T18:32:54Z</time></trkpt>
<trkpt lat="54.419666" lon="-2.982397"><ele>60</ele><time>2009-08-04T18:33:19Z</time></trkpt>
<trkpt lat="54.416721" lon="-2.983112"><ele>69</ele><time>2009-08-04T18:34:41Z</time></trkpt>
<trkpt lat="54.415467" lon="-2.983622"><ele>70</ele><time>2009-08-04T18:35:15Z</time></trkpt>
<trkpt lat="54.413197" lon="-2.984323"><ele>64</ele><time>2009-08-04T18:35:51Z</time></trkpt>
<trkpt lat="54.412153" lon="-2.985607"><ele>64</ele><time>2009-08-04T18:36:11Z</time></trkpt>
<trkpt lat="54.411033" lon="-2.988446"><ele>49</ele><time>2009-08-04T18:36:29Z</time></trkpt>
<trkpt lat="54.409736" lon="-2.987706"><ele>52</ele><time>2009-08-04T18:36:52Z</time></trkpt>
<trkpt lat="54.407018" lon="-2.982618"><ele>53</ele><time>2009-08-04T18:38:18Z</time></trkpt>
<trkpt lat="54.405904" lon="-2.981467"><ele>50</ele><time>2009-08-04T18:38:41Z</time></trkpt>
<trkpt lat="54.403483" lon="-2.981902"><ele>49</ele><time>2009-08-04T18:39:14Z</time></trkpt>
<trkpt lat="54.400333" lon="-2.982474"><ele>55</ele><time>2009-08-04T18:40:25Z</time></trkpt>
<trkpt lat="54.398783" lon="-2.986273"><ele>65</ele><time>2009-08-04T18:41:28Z</time></trkpt>
<trkpt lat="54.397951" lon="-2.987962"><ele>78</ele><time>2009-08-04T18:42:01Z</time></trkpt>
<trkpt lat="54.397018" lon="-2.989973"><ele>86</ele><time>2009-08-04T18:42:34Z</time></trkpt>
<trkpt lat="54.395785" lon="-2.991268"><ele>86</ele><time>2009-08-04T18:42:59Z</time></trkpt>
<trkpt lat="54.394429" lon="-2.993299"><ele>95</ele><time>2009-08-04T18:43:42Z</time></trkpt>
<trkpt lat="54.393019" lon="-2.993127"><ele>95</ele><time>2009-08-04T18:44:25Z</time></trkpt>
<trkpt lat="54.391631" lon="-2.993694"><ele>97</ele><time>2009-08-04T18:44:58Z</time></trkpt>
<trkpt lat="54.391696" lon="-2.992248"><ele>101</ele><time>2009-08-04T18:45:53Z</time></trkpt>
<trkpt lat="54.392084" lon="-2.989901"><ele>93</ele><time>2009-08-04T18:46:32Z</time></trkpt>
<trkpt lat="54.392653" lon="-2.988497"><ele>86</ele><time>2009-08-04T18:46:56Z</time></trkpt>
<trkpt lat="54.393416" lon="-2.987468"><ele>78</ele><time>2009-08-04T18:47:22Z</time></trkpt>
<trkpt lat="54.394463" lon="-2.985876"><ele>66</ele><time>2009-08-04T18:47:47Z</time></trkpt>
<trkpt lat="54.395068" lon="-2.984428"><ele>55</ele><time>2009-08-04T18:48:27Z</time></trkpt>
<trkpt lat="54.396136" lon="-2.983529"><ele>51</ele><time>2009-08-04T18:48:59Z</time></trkpt>
<trkpt lat="54.396701" lon="-2.982510"><ele>48</ele><time>2009-08-04T18:49:23Z</time></trkpt>
<trkpt lat="54.397417" lon="-2.980679"><ele>38</ele><time>2009-08-04T18:50:09Z</time></trkpt>
<trkpt lat="54.397984" lon="-2.979476"><ele>49</ele><time>2009-08-04T18:51:08Z</time></trkpt>
<trkpt lat="54.398403" lon="-2.977684"><ele>50</ele><time>2009-08-04T18:51:37Z</time></trkpt>
<trkpt lat="54.399280" lon="-2.975979"><ele>50</ele><time>2009-08-04T18:52:15Z</time></trkpt>
<trkpt lat="54.400001" lon="-2.974564"><ele>46</ele><time>2009-08-04T18:52:39Z</time></trkpt>
<trkpt lat="54.400201" lon="-2.973259"><ele>48</ele><time>2009-08-04T18:53:06Z</time></trkpt>
<trkpt lat="54.400517" lon="-2.970833"><ele>42</ele><time>2009-08-04T18:54:05Z</time></trkpt>
<trkpt lat="54.399471" lon="-2.970161"><ele>49</ele><time>2009-08-04T18:54:37Z</time></trkpt>
<trkpt lat="54.398503" lon="-2.969768"><ele>57</ele><time>2009-08-04T18:55:22Z</time></trkpt>
<trkpt lat="54.397037" lon="-2.969888"><ele>82</ele><time>2009-08-04T18:56:08Z</time></trkpt>
<trkpt lat="54.395383" lon="-2.969911"><ele>72</ele><time>2009-08-04T18:56:30Z</time></trkpt>
<trkpt lat="54.394604" lon="-2.968506"><ele>69</ele><time>2009-08-04T18:56:52Z</time></trkpt>
<trkpt lat="54.393020" lon="-2.966451"><ele>83</ele><time>2009-08-04T18:58:16Z</time></trkpt>
<trkpt lat="54.392204" lon="-2.966216"><ele>86</ele><time>2009-08-04T18:58:44Z</time></trkpt>
<trkpt lat="54.391168" lon="-2.967640"><ele>94</ele><time>2009-08-04T18:59:21Z</time></trkpt>
<trkpt lat="54.390517" lon="-2.968163"><ele>96</ele><time>2009-08-04T19:00:08Z</time></trkpt>
<trkpt lat="54.389698" lon="-2.968252"><ele>106</ele><time>2009-08-04T19:01:08Z</time></trkpt>
<trkpt lat="54.388950" lon="-2.968588"><ele>120</ele><time>2009-08-04T19:02:08Z</time></trkpt>
<trkpt lat="54.388386" lon="-2.969360"><ele>127</ele><time>2009-08-04T19:02:45Z</time></trkpt>
<trkpt lat="54.387481" lon="-2.969016"><ele>140</ele><time>2009-08-04T19:03:35Z</time></trkpt>
<trkpt lat="54.387030" lon="-2.968066"><ele>166</ele><time>2009-08-04T19:06:14Z</time></trkpt>
<trkpt lat="54.386370" lon="-2.967527"><ele>180</ele><time>2009-08-04T19:07:28Z</time></trkpt>
<trkpt lat="54.385967" lon="-2.967271"><ele>216</ele><time>2009-08-04T19:14:24Z</time></trkpt>
<trkpt lat="54.385237" lon="-2.965344"><ele>197</ele><time>2009-08-04T19:16:44Z</time></trkpt>
<trkpt lat="54.384415" lon="-2.963631"><ele>190</ele><time>2009-08-04T19:17:11Z</time></trkpt>
<trkpt lat="54.383870" lon="-2.963141"><ele>188</ele><time>2009-08-04T19:18:15Z</time></trkpt>
<trkpt lat="54.382680" lon="-2.961389"><ele>166</ele><time>2009-08-04T19:19:11Z</time></trkpt>
<trkpt lat="54.382447" lon="-2.960182"><ele>167</ele><time>2009-08-04T19:19:40Z</time></trkpt>
<trkpt lat="54.381951" lon="-2.959247"><ele>167</ele><time>2009-08-04T19:20:05Z</time></trkpt>
<trkpt lat="54.380666" lon="-2.958031"><ele>171</ele><time>2009-08-04T19:20:52Z</time></trkpt>
<trkpt lat="54.379550" lon="-2.958298"><ele>170</ele><time>2009-08-04T19:21:14Z</time></trkpt>
<trkpt lat="54.379168" lon="-2.958828"><ele>176</ele><time>2009-08-04T19:22:11Z</time></trkpt>
<trkpt lat="54.378415" lon="-2.959749"><ele>181</ele><time>2009-08-04T19:22:51Z</time></trkpt>
<trkpt lat="54.377253" lon="-2.959984"><ele>208</ele><time>2009-08-04T19:24:24Z</time></trkpt>
<trkpt lat="54.376567" lon="-2.960461"><ele>212</ele><time>2009-08-04T19:25:39Z</time></trkpt>
<trkpt lat="54.376147" lon="-2.961251"><ele>212</ele><time>2009-08-04T19:26:40Z</time></trkpt>
<trkpt lat="54.376869" lon="-2.963100"><ele>201</ele><time>2009-08-04T19:27:08Z</time></trkpt>
<trkpt lat="54.378401" lon="-2.963690"><ele>211</ele><time>2009-08-04T19:27:58Z</time></trkpt>
<trkpt lat="54.379248" lon="-2.963448"><ele>221</ele><time>2009-08-04T19:28:33Z</time></trkpt>
<trkpt lat="54.379263" lon="-2.964942"><ele>221</ele><time>2009-08-04T19:29:37Z</time></trkpt>
<trkpt lat="54.378763" lon="-2.965685"><ele>225</ele><time>2009-08-04T19:30:09Z</time></trkpt>
<trkpt lat="54.378981" lon="-2.966552"><ele>224</ele><time>2009-08-04T19:31:11Z</time></trkpt>
<trkpt lat="54.380280" lon="-2.967029"><ele>211</ele><time>2009-08-04T19:32:24Z</time></trkpt>
<trkpt lat="54.380482" lon="-2.967635"><ele>224</ele><time>2009-08-04T19:33:35Z</time></trkpt>
<trkpt lat="54.380881" lon="-2.967228"><ele>219</ele><time>2009-08-04T19:34:34Z</time></trkpt>
<trkpt lat="54.381035" lon="-2.968186"><ele>218</ele><time>2009-08-04T19:35:22Z</time></trkpt>
<trkpt lat="54.380549" lon="-2.970485"><ele>223</ele><time>2009-08-04T19:36:23Z</time></trkpt>
<trkpt lat="54.380170" lon="-2.971738"><ele>215</ele><time>2009-08-04T19:36:47Z</time></trkpt>
<trkpt lat="54.381235" lon="-2.972395"><ele>205</ele><time>2009-08-04T19:37:30Z</time></trkpt>
<trkpt lat="54.381453" lon="-2.973185"><ele>199</ele><time>2009-08-04T19:40:48Z</time></trkpt>
<trkpt lat="54.381382" lon="-2.974215"><ele>215</ele><time>2009-08-04T19:42:04Z</time></trkpt>
<trkpt lat="54.380997" lon="-2.975130"><ele>221</ele><time>2009-08-04T19:42:56Z</time></trkpt>
<trkpt lat="54.380846" lon="-2.976004"><ele>216</ele><time>2009-08-04T19:43:30Z</time></trkpt>
<trkpt lat="54.381249" lon="-2.976136"><ele>223</ele><time>2009-08-04T19:44:55Z</time></trkpt>
<trkpt lat="54.382150" lon="-2.975927"><ele>233</ele><time>2009-08-04T19:46:39Z</time></trkpt>
<trkpt lat="54.382780" lon="-2.975819"><ele>239</ele><time>2009-08-04T19:47:42Z</time></trkpt>
<trkpt lat="54.383364" lon="-2.975863"><ele>246</ele><time>2009-08-04T19:53:14Z</time></trkpt>
<trkpt lat="54.383003" lon="-2.977164"><ele>219</ele><time>2009-08-04T19:54:31Z</time></trkpt>
<trkpt lat="54.382500" lon="-2.978137"><ele>204</ele><time>2009-08-04T19:54:51Z</time></trkpt>
<trkpt lat="54.382304" lon="-2.979072"><ele>189</ele><time>2009-08-04T19:55:26Z</time></trkpt>
<trkpt lat="54.382763" lon="-2.980099"><ele>189</ele><time>2009-08-04T19:56:07Z</time></trkpt>
<trkpt lat="54.383413" lon="-2.980869"><ele>177</ele><time>2009-08-04T19:56:34Z</time></trkpt>
<trkpt lat="54.383813" lon="-2.982572"><ele>156</ele><time>2009-08-04T19:57:21Z</time></trkpt>
<trkpt lat="54.383982" lon="-2.983793"><ele>134</ele><time>2009-08-04T19:57:54Z</time></trkpt>
<trkpt lat="54.382497" lon="-2.985205"><ele>121</ele><time>2009-08-04T19:59:05Z</time></trkpt>
<trkpt lat="54.378484" lon="-2.987911"><ele>102</ele><time>2009-08-04T19:59:52Z</time></trkpt>
<trkpt lat="54.376881" lon="-2.988272"><ele>92</ele><time>2009-08-04T20:00:17Z</time></trkpt>
<trkpt lat="54.376201" lon="-2.990150"><ele>86</ele><time>2009-08-04T20:00:37Z</time></trkpt>
<trkpt lat="54.376847" lon="-2.991412"><ele>85</ele><time>2009-08-04T20:00:58Z</time></trkpt>
<trkpt lat="54.377714" lon="-2.993019"><ele>85</ele><time>2009-08-04T20:01:23Z</time></trkpt>
<trkpt lat="54.378468" lon="-2.993145"><ele>83</ele><time>2009-08-04T20:01:42Z</time></trkpt>
<trkpt lat="54.379351" lon="-2.993982"><ele>81</ele><time>2009-08-04T20:02:13Z</time></trkpt>
<trkpt lat="54.380452" lon="-2.994594"><ele>80</ele><time>2009-08-04T20:02:39Z</time></trkpt>
<trkpt lat="54.381520" lon="-2.995821"><ele>75</ele><time>2009-08-04T20:03:10Z</time></trkpt>
<trkpt lat="54.381986" lon="-2.997064"><ele>75</ele><time>2009-08-04T20:03:32Z</time></trkpt>
<trkpt lat="54.382699" lon="-2.997743"><ele>83</ele><time>2009-08-04T20:03:52Z</time></trkpt>
<trkpt lat="54.382333" lon="-2.999628"><ele>84</ele><time>2009-08-04T20:04:25Z</time></trkpt>
<trkpt lat="54.381820" lon="-3.000832"><ele>88</ele><time>2009-08-04T20:04:53Z</time></trkpt>
<trkpt lat="54.382798" lon="-3.001056"><ele>90</ele><time>2009-08-04T20:05:26Z</time></trkpt>
<trkpt lat="54.383716" lon="-3.000863"><ele>97</ele><time>2009-08-04T20:05:57Z</time></trkpt>
<trkpt lat="54.385967" lon="-3.000348"><ele>112</ele><time>2009-08-04T20:07:08Z</time></trkpt>
<trkpt lat="54.386649" lon="-3.001627"><ele>109</ele><time>2009-08-04T20:07:50Z</time></trkpt>
<trkpt lat="54.387319" lon="-3.003137"><ele>112</ele><time>2009-08-04T20:08:17Z</time></trkpt>
<trkpt lat="54.387983" lon="-3.004355"><ele>118</ele><time>2009-08-04T20:08:44Z</time></trkpt>
<trkpt lat="54.389104" lon="-3.004721"><ele>115</ele><time>2009-08-04T20:09:12Z</time></trkpt>
<trkpt lat="54.389234" lon="-3.006387"><ele>120</ele><time>2009-08-04T20:09:32Z</time></trkpt>
<trkpt lat="54.389403" lon="-3.007593"><ele>126</ele><time>2009-08-04T20:09:59Z</time></trkpt>
<trkpt lat="54.388714" lon="-3.009470"><ele>111</ele><time>2009-08-04T20:10:24Z</time></trkpt>
<trkpt lat="54.389582" lon="-3.010985"><ele>115</ele><time>2009-08-04T20:10:50Z</time></trkpt>
<trkpt lat="54.389097" lon="-3.013052"><ele>123</ele><time>2009-08-04T20:11:31Z</time></trkpt>
<trkpt lat="54.388669" lon="-3.013765"><ele>135</ele><time>2009-08-04T20:12:01Z</time></trkpt>
<trkpt lat="54.387683" lon="-3.014480"><ele>149</ele><time>2009-08-04T20:13:07Z</time></trkpt>
<trkpt lat="54.387631" lon="-3.015311"><ele>159</ele><time>2009-08-04T20:15:14Z</time></trkpt>
<trkpt lat="54.388412" lon="-3.015407"><ele>177</ele><time>2009-08-04T20:16:10Z</time></trkpt>
<trkpt lat="54.388815" lon="-3.015586"><ele>189</ele><time>2009-08-04T20:16:46Z</time></trkpt>
<trkpt lat="54.389269" lon="-3.016121"><ele>196</ele><time>2009-08-04T20:17:33Z</time></trkpt>
<trkpt lat="54.390568" lon="-3.016631"><ele>208</ele><time>2009-08-04T20:18:41Z</time></trkpt>
<trkpt lat="54.391934" lon="-3.017696"><ele>210</ele><time>2009-08-04T20:19:35Z</time></trkpt>
<trkpt lat="54.392503" lon="-3.018403"><ele>213</ele><time>2009-08-04T20:20:01Z</time></trkpt>
<trkpt lat="54.393583" lon="-3.018276"><ele>207</ele><time>2009-08-04T20:20:26Z</time></trkpt>
<trkpt lat="54.394048" lon="-3.019551"><ele>211</ele><time>2009-08-04T20:20:47Z</time></trkpt>
<trkpt lat="54.394719" lon="-3.019968"><ele>213</ele><time>2009-08-04T20:21:12Z</time></trkpt>
<trkpt lat="54.395002" lon="-3.021638"><ele>219</ele><time>2009-08-04T20:22:10Z</time></trkpt>
<trkpt lat="54.396135" lon="-3.023638"><ele>221</ele><time>2009-08-04T20:23:02Z</time></trkpt>
<trkpt lat="54.398086" lon="-3.023594"><ele>235</ele><time>2009-08-04T20:25:29Z</time></trkpt>
<trkpt lat="54.398798" lon="-3.023365"><ele>242</ele><time>2009-08-04T20:26:13Z</time></trkpt>
<trkpt lat="54.399366" lon="-3.023071"><ele>250</ele><time>2009-08-04T20:27:13Z</time></trkpt>
<trkpt lat="54.399998" lon="-3.022733"><ele>253</ele><time>2009-08-04T20:27:49Z</time></trkpt>
<trkpt lat="54.400798" lon="-3.022784"><ele>263</ele><time>2009-08-04T20:28:47Z</time></trkpt>
<trkpt lat="54.401436" lon="-3.023893"><ele>266</ele><time>2009-08-04T20:30:33Z</time></trkpt>
<trkpt lat="54.402265" lon="-3.025685"><ele>259</ele><time>2009-08-04T20:31:06Z</time></trkpt>
<trkpt lat="54.403403" lon="-3.026130"><ele>242</ele><time>2009-08-04T20:31:34Z</time></trkpt>
<trkpt lat="54.404300" lon="-3.026322"><ele>235</ele><time>2009-08-04T20:32:02Z</time></trkpt>
<trkpt lat="54.405029" lon="-3.026201"><ele>233</ele><time>2009-08-04T20:32:22Z</time></trkpt>
<trkpt lat="54.405847" lon="-3.025143"><ele>233</ele><time>2009-08-04T20:32:52Z</time></trkpt>
<trkpt lat="54.406501" lon="-3.026469"><ele>228</ele><time>2009-08-04T20:33:26Z</time></trkpt>
<trkpt lat="54.408282" lon="-3.027315"><ele>221</ele><time>2009-08-04T20:34:22Z</time></trkpt>
<trkpt lat="54.409067" lon="-3.028074"><ele>222</ele><time>2009-08-04T20:34:57Z</time></trkpt>
<trkpt lat="54.409697" lon="-3.027905"><ele>220</ele><time>2009-08-04T20:35:21Z</time></trkpt>
<trkpt lat="54.410601" lon="-3.027296"><ele>208</ele><time>2009-08-04T20:35:48Z</time></trkpt>
<trkpt lat="54.411413" lon="-3.026900"><ele>207</ele><time>2009-08-04T20:36:34Z</time></trkpt>
<trkpt lat="54.412619" lon="-3.026699"><ele>198</ele><time>2009-08-04T20:37:25Z</time></trkpt>
<trkpt lat="54.413751" lon="-3.026820"><ele>194</ele><time>2009-08-04T20:38:10Z</time></trkpt>
<trkpt lat="54.414532" lon="-3.026855"><ele>182</ele><time>2009-08-04T20:38:39Z</time></trkpt>
<trkpt lat="54.415281" lon="-3.027567"><ele>166</ele><time>2009-08-04T20:39:09Z</time></trkpt>
<trkpt lat="54.415952" lon="-3.028000"><ele>156</ele><time>2009-08-04T20:39:33Z</time></trkpt>
<trkpt lat="54.416314" lon="-3.026622"><ele>146</ele><time>2009-08-04T20:40:07Z</time></trkpt>
<trkpt lat="54.416663" lon="-3.025706"><ele>138</ele><time>2009-08-04T20:40:34Z</time></trkpt>
<trkpt lat="54.417381" lon="-3.025847"><ele>120</ele><time>2009-08-04T20:41:06Z</time></trkpt>
<trkpt lat="54.417732" lon="-3.023683"><ele>114</ele><time>2009-08-04T20:43:43Z</time></trkpt>
<trkpt lat="54.419230" lon="-3.018665"><ele>104</ele><time>2009-08-04T20:44:17Z</time></trkpt>
<trkpt lat="54.419270" lon="-3.016062"><ele>96</ele><time>2009-08-04T20:44:31Z</time></trkpt>
<trkpt lat="54.420652" lon="-3.014246"><ele>78</ele><time>2009-08-04T20:44:51Z</time></trkpt>
<trkpt lat="54.421284" lon="-3.011750"><ele>63</ele><time>2009-08-04T20:45:07Z</time></trkpt>
<trkpt lat="54.422832" lon="-3.011449"><ele>57</ele><time>2009-08-04T20:45:31Z</time></trkpt>
<trkpt lat="54.423781" lon="-3.008636"><ele>58</ele><time>2009-08-04T20:46:03Z</time></trkpt>
<trkpt lat="54.424333" lon="-3.006060"><ele>61</ele><time>2009-08-04T20:46:31Z</time></trkpt>
<trkpt lat="54.424520" lon="-3.004138"><ele>71</ele><time>2009-08-04T20:47:06Z</time></trkpt>
<trkpt lat="54.423002" lon="-3.001851"><ele>82</ele><time>2009-08-04T20:47:30Z</time></trkpt>
<trkpt lat="54.422368" lon="-3.000294"><ele>82</ele><time>2009-08-04T20:47:51Z</time></trkpt>
<trkpt lat="54.423135" lon="-2.997800"><ele>80</ele><time>2009-08-04T20:48:12Z</time></trkpt>
<trkpt lat="54.424004" lon="-2.994770"><ele>67</ele><time>2009-08-04T20:48:42Z</time></trkpt>
<trkpt lat="54.423737" lon="-2.992266"><ele>70</ele><time>2009-08-04T20:49:07Z</time></trkpt>
<trkpt lat="54.423970" lon="-2.990160"><ele>73</ele><time>2009-08-04T20:49:26Z</time></trkpt>
<trkpt lat="54.422834" lon="-2.988484"><ele>73</ele><time>2009-08-04T20:49:58Z</time></trkpt>
<trkpt lat="54.422165" lon="-2.985601"><ele>63</ele><time>2009-08-04T20:50:22Z</time></trkpt>
<trkpt lat="54.421916" lon="-2.981973"><ele>65</ele><time>2009-08-04T20:50:54Z</time></trkpt>
<trkpt lat="54.422634" lon="-2.978815"><ele>78</ele><time>2009-08-04T20:51:26Z</time></trkpt>
<trkpt lat="54.423566" lon="-2.976895"><ele>74</ele><time>2009-08-04T20:51:53Z</time></trkpt>
<trkpt lat="54.424219" lon="-2.972765"><ele>65</ele><time>2009-08-04T20:52:20Z</time></trkpt>
<trkpt lat="54.425785" lon="-2.970274"><ele>55</ele><time>2009-08-04T20:52:44Z</time></trkpt>
<trkpt lat="54.426504" lon="-2.969212"><ele>56</ele><time>2009-08-04T20:53:00Z</time></trkpt>
<trkpt lat="54.427651" lon="-2.967343"><ele>54</ele><time>2009-08-04T20:53:27Z</time></trkpt>
<trkpt lat="54.429182" lon="-2.965822"><ele>53</ele><time>2009-08-04T20:53:54Z</time></trkpt>
<trkpt lat="54.430019" lon="-2.964655"><ele>55</ele><time>2009-08-04T20:54:14Z</time></trkpt>
<trkpt lat="54.432483" lon="-2.963279"><ele>62</ele><time>2009-08-04T20:55:09Z</time></trkpt>
<trkpt lat="54.433569" lon="-2.963443"><ele>60</ele><time>2009-08-04T20:55:37Z</time></trkpt>
<trkpt lat="54.433563" lon="-2.964306"><ele>57</ele><time>2009-08-04T20:57:18Z</time></trkpt>
</trkseg>
</trk>

</gpx>
————————————————————————

Advertisements

Leave a Reply

Fill in your details below or click an icon to log in:

WordPress.com Logo

You are commenting using your WordPress.com account. Log Out / Change )

Twitter picture

You are commenting using your Twitter account. Log Out / Change )

Facebook photo

You are commenting using your Facebook account. Log Out / Change )

Google+ photo

You are commenting using your Google+ account. Log Out / Change )

Connecting to %s


%d bloggers like this: